sensor_id;sensor_type;location;lat;lon;timestamp;P1;durP1;ratioP1;P2;durP2;ratioP2
18376;SDS011;9315;52.624;13.544;2022-09-01T00:02:32;2.00;;;0.30;;
18376;SDS011;9315;52.624;13.544;2022-09-01T00:05:00;0.43;;;0.43;;
18376;SDS011;9315;52.624;13.544;2022-09-01T00:07:31;0.83;;;0.30;;
18376;SDS011;9315;52.624;13.544;2022-09-01T00:10:00;2.10;;;0.50;;
18376;SDS011;9315;52.624;13.544;2022-09-01T00:12:33;3.57;;;0.40;;
18376;SDS011;9315;52.624;13.544;2022-09-01T00:15:02;1.07;;;0.33;;
18376;SDS011;9315;52.624;13.544;2022-09-01T00:17:33;1.47;;;0.50;;
18376;SDS011;9315;52.624;13.544;2022-09-01T00:20:00;1.37;;;0.50;;
18376;SDS011;9315;52.624;13.544;2022-09-01T00:22:30;2.97;;;0.50;;
18376;SDS011;9315;52.624;13.544;2022-09-01T00:24:58;2.20;;;0.50;;
18376;SDS011;9315;52.624;13.544;2022-09-01T00:27:27;2.30;;;0.33;;
18376;SDS011;9315;52.624;13.544;2022-09-01T00:29:56;2.97;;;0.60;;
18376;SDS011;9315;52.624;13.544;2022-09-01T00:32:25;3.70;;;0.47;;
18376;SDS011;9315;52.624;13.544;2022-09-01T00:34:53;0.73;;;0.50;;
18376;SDS011;9315;52.624;13.544;2022-09-01T00:37:20;1.93;;;0.40;;
18376;SDS011;9315;52.624;13.544;2022-09-01T00:39:48;1.97;;;0.40;;
18376;SDS011;9315;52.624;13.544;2022-09-01T00:42:15;1.50;;;0.43;;
18376;SDS011;9315;52.624;13.544;2022-09-01T00:44:42;2.97;;;0.50;;
18376;SDS011;9315;52.624;13.544;2022-09-01T00:47:19;2.77;;;0.50;;
18376;SDS011;9315;52.624;13.544;2022-09-01T00:49:47;1.43;;;0.80;;
18376;SDS011;9315;52.624;13.544;2022-09-01T00:52:27;1.83;;;0.40;;
18376;SDS011;9315;52.624;13.544;2022-09-01T00:55:09;1.03;;;0.50;;
18376;SDS011;9315;52.624;13.544;2022-09-01T00:57:52;1.00;;;0.70;;
18376;SDS011;9315;52.624;13.544;2022-09-01T01:00:21;1.10;;;0.50;;
18376;SDS011;9315;52.624;13.544;2022-09-01T01:02:55;2.10;;;0.80;;
18376;SDS011;9315;52.624;13.544;2022-09-01T01:05:24;0.87;;;0.50;;
18376;SDS011;9315;52.624;13.544;2022-09-01T01:07:59;1.27;;;0.60;;
18376;SDS011;9315;52.624;13.544;2022-09-01T01:10:30;2.50;;;0.50;;
18376;SDS011;9315;52.624;13.544;2022-09-01T01:13:05;0.80;;;0.63;;
18376;SDS011;9315;52.624;13.544;2022-09-01T01:15:41;1.80;;;0.77;;
18376;SDS011;9315;52.624;13.544;2022-09-01T01:18:10;3.00;;;0.57;;
18376;SDS011;9315;52.624;13.544;2022-09-01T01:20:42;2.83;;;0.50;;
18376;SDS011;9315;52.624;13.544;2022-09-01T01:24:30;2.73;;;0.53;;
18376;SDS011;9315;52.624;13.544;2022-09-01T01:26:57;3.37;;;0.80;;
18376;SDS011;9315;52.624;13.544;2022-09-01T01:29:32;2.10;;;0.60;;
18376;SDS011;9315;52.624;13.544;2022-09-01T01:32:03;2.97;;;0.50;;
18376;SDS011;9315;52.624;13.544;2022-09-01T01:34:38;2.03;;;0.50;;
18376;SDS011;9315;52.624;13.544;2022-09-01T01:37:07;1.17;;;0.50;;
18376;SDS011;9315;52.624;13.544;2022-09-01T01:39:39;0.83;;;0.57;;
18376;SDS011;9315;52.624;13.544;2022-09-01T01:42:09;2.17;;;0.60;;
18376;SDS011;9315;52.624;13.544;2022-09-01T01:44:37;1.90;;;0.60;;
18376;SDS011;9315;52.624;13.544;2022-09-01T01:47:07;4.17;;;0.63;;
18376;SDS011;9315;52.624;13.544;2022-09-01T01:49:38;1.23;;;0.40;;
18376;SDS011;9315;52.624;13.544;2022-09-01T01:52:10;1.87;;;0.57;;
18376;SDS011;9315;52.624;13.544;2022-09-01T01:54:43;2.47;;;0.50;;
18376;SDS011;9315;52.624;13.544;2022-09-01T01:57:11;3.10;;;0.53;;
18376;SDS011;9315;52.624;13.544;2022-09-01T01:59:43;0.40;;;0.37;;
18376;SDS011;9315;52.624;13.544;2022-09-01T02:02:11;0.60;;;0.50;;
18376;SDS011;9315;52.624;13.544;2022-09-01T02:04:38;1.13;;;0.50;;
18376;SDS011;9315;52.624;13.544;2022-09-01T02:07:09;0.93;;;0.53;;
18376;SDS011;9315;52.624;13.544;2022-09-01T02:09:38;0.80;;;0.40;;
18376;SDS011;9315;52.624;13.544;2022-09-01T02:12:09;1.70;;;0.50;;
18376;SDS011;9315;52.624;13.544;2022-09-01T02:14:40;0.40;;;0.30;;
18376;SDS011;9315;52.624;13.544;2022-09-01T02:17:07;3.03;;;0.87;;
18376;SDS011;9315;52.624;13.544;2022-09-01T02:19:34;3.23;;;0.80;;
18376;SDS011;9315;52.624;13.544;2022-09-01T02:22:07;1.23;;;0.60;;
18376;SDS011;9315;52.624;13.544;2022-09-01T02:24:36;2.80;;;0.63;;
18376;SDS011;9315;52.624;13.544;2022-09-01T02:27:04;2.90;;;0.60;;
18376;SDS011;9315;52.624;13.544;2022-09-01T02:29:35;2.03;;;0.80;;
18376;SDS011;9315;52.624;13.544;2022-09-01T02:32:08;1.00;;;0.43;;
18376;SDS011;9315;52.624;13.544;2022-09-01T02:34:36;2.57;;;0.80;;
18376;SDS011;9315;52.624;13.544;2022-09-01T02:37:05;1.20;;;0.80;;
18376;SDS011;9315;52.624;13.544;2022-09-01T02:39:32;4.53;;;0.87;;
18376;SDS011;9315;52.624;13.544;2022-09-01T02:41:59;1.70;;;0.63;;
18376;SDS011;9315;52.624;13.544;2022-09-01T02:44:28;2.03;;;0.53;;
18376;SDS011;9315;52.624;13.544;2022-09-01T02:46:56;1.00;;;0.57;;
18376;SDS011;9315;52.624;13.544;2022-09-01T02:49:24;2.87;;;0.40;;
18376;SDS011;9315;52.624;13.544;2022-09-01T02:51:55;1.30;;;0.60;;
18376;SDS011;9315;52.624;13.544;2022-09-01T02:54:27;2.27;;;0.70;;
18376;SDS011;9315;52.624;13.544;2022-09-01T02:57:00;0.87;;;0.70;;
18376;SDS011;9315;52.624;13.544;2022-09-01T02:59:29;1.80;;;0.80;;
18376;SDS011;9315;52.624;13.544;2022-09-01T03:01:56;2.17;;;0.80;;
18376;SDS011;9315;52.624;13.544;2022-09-01T03:04:24;1.73;;;0.70;;
18376;SDS011;9315;52.624;13.544;2022-09-01T03:06:52;1.30;;;0.70;;
18376;SDS011;9315;52.624;13.544;2022-09-01T03:09:20;3.83;;;0.80;;
18376;SDS011;9315;52.624;13.544;2022-09-01T03:11:51;2.13;;;1.00;;
18376;SDS011;9315;52.624;13.544;2022-09-01T03:14:19;2.50;;;0.80;;
18376;SDS011;9315;52.624;13.544;2022-09-01T03:16:48;0.80;;;0.70;;
18376;SDS011;9315;52.624;13.544;2022-09-01T03:19:15;2.23;;;0.97;;
18376;SDS011;9315;52.624;13.544;2022-09-01T03:21:44;1.73;;;1.03;;
18376;SDS011;9315;52.624;13.544;2022-09-01T03:24:13;3.97;;;1.17;;
18376;SDS011;9315;52.624;13.544;2022-09-01T03:26:43;2.07;;;0.70;;
18376;SDS011;9315;52.624;13.544;2022-09-01T03:29:15;2.13;;;0.70;;
18376;SDS011;9315;52.624;13.544;2022-09-01T03:31:44;1.40;;;1.10;;
18376;SDS011;9315;52.624;13.544;2022-09-01T03:34:11;3.73;;;1.37;;
18376;SDS011;9315;52.624;13.544;2022-09-01T03:36:42;2.10;;;1.00;;
18376;SDS011;9315;52.624;13.544;2022-09-01T03:39:16;1.30;;;0.90;;
18376;SDS011;9315;52.624;13.544;2022-09-01T03:41:44;4.50;;;0.90;;
18376;SDS011;9315;52.624;13.544;2022-09-01T03:44:12;3.30;;;0.83;;
18376;SDS011;9315;52.624;13.544;2022-09-01T03:46:41;4.37;;;0.97;;
18376;SDS011;9315;52.624;13.544;2022-09-01T03:49:09;1.90;;;0.83;;
18376;SDS011;9315;52.624;13.544;2022-09-01T03:51:41;3.10;;;0.90;;
18376;SDS011;9315;52.624;13.544;2022-09-01T03:54:10;2.30;;;0.80;;
18376;SDS011;9315;52.624;13.544;2022-09-01T03:56:38;2.17;;;1.00;;
18376;SDS011;9315;52.624;13.544;2022-09-01T03:59:06;2.63;;;0.93;;
18376;SDS011;9315;52.624;13.544;2022-09-01T04:01:42;1.77;;;0.70;;
18376;SDS011;9315;52.624;13.544;2022-09-01T04:04:10;2.63;;;0.80;;
18376;SDS011;9315;52.624;13.544;2022-09-01T04:06:39;3.63;;;1.10;;
18376;SDS011;9315;52.624;13.544;2022-09-01T04:09:09;2.00;;;0.57;;
18376;SDS011;9315;52.624;13.544;2022-09-01T04:11:37;0.63;;;0.53;;
18376;SDS011;9315;52.624;13.544;2022-09-01T04:14:11;1.90;;;0.67;;
18376;SDS011;9315;52.624;13.544;2022-09-01T04:16:39;1.50;;;0.70;;
18376;SDS011;9315;52.624;13.544;2022-09-01T04:19:25;0.83;;;0.70;;
18376;SDS011;9315;52.624;13.544;2022-09-01T04:21:57;2.77;;;1.00;;
18376;SDS011;9315;52.624;13.544;2022-09-01T04:24:26;0.83;;;0.50;;
18376;SDS011;9315;52.624;13.544;2022-09-01T04:26:57;2.80;;;1.10;;
18376;SDS011;9315;52.624;13.544;2022-09-01T04:29:27;4.37;;;0.90;;
18376;SDS011;9315;52.624;13.544;2022-09-01T04:31:58;2.13;;;0.97;;
18376;SDS011;9315;52.624;13.544;2022-09-01T04:34:32;2.27;;;1.03;;
18376;SDS011;9315;52.624;13.544;2022-09-01T04:37:14;3.30;;;1.00;;
18376;SDS011;9315;52.624;13.544;2022-09-01T04:39:47;3.80;;;1.00;;
18376;SDS011;9315;52.624;13.544;2022-09-01T04:42:22;1.77;;;0.80;;
18376;SDS011;9315;52.624;13.544;2022-09-01T04:44:54;4.33;;;0.90;;
18376;SDS011;9315;52.624;13.544;2022-09-01T04:47:23;2.30;;;0.80;;
18376;SDS011;9315;52.624;13.544;2022-09-01T04:50:02;2.20;;;0.93;;
18376;SDS011;9315;52.624;13.544;2022-09-01T04:52:40;1.50;;;1.07;;
18376;SDS011;9315;52.624;13.544;2022-09-01T04:55:08;3.13;;;1.03;;
18376;SDS011;9315;52.624;13.544;2022-09-01T04:57:44;2.27;;;1.17;;
18376;SDS011;9315;52.624;13.544;2022-09-01T05:00:15;2.77;;;1.40;;
18376;SDS011;9315;52.624;13.544;2022-09-01T05:02:50;1.80;;;1.27;;
18376;SDS011;9315;52.624;13.544;2022-09-01T05:05:34;2.93;;;1.17;;
18376;SDS011;9315;52.624;13.544;2022-09-01T05:08:14;1.80;;;1.00;;
18376;SDS011;9315;52.624;13.544;2022-09-01T05:10:50;4.33;;;1.40;;
18376;SDS011;9315;52.624;13.544;2022-09-01T05:13:21;2.07;;;1.00;;
18376;SDS011;9315;52.624;13.544;2022-09-01T05:15:58;2.67;;;1.20;;
18376;SDS011;9315;52.624;13.544;2022-09-01T05:18:38;1.67;;;1.00;;
18376;SDS011;9315;52.624;13.544;2022-09-01T05:21:14;6.27;;;1.57;;
18376;SDS011;9315;52.624;13.544;2022-09-01T05:23:47;4.03;;;1.47;;
18376;SDS011;9315;52.624;13.544;2022-09-01T05:26:17;2.20;;;1.30;;
18376;SDS011;9315;52.624;13.544;2022-09-01T05:28:55;4.23;;;1.03;;
18376;SDS011;9315;52.624;13.544;2022-09-01T05:31:35;4.27;;;1.00;;
18376;SDS011;9315;52.624;13.544;2022-09-01T05:34:03;2.47;;;1.20;;
18376;SDS011;9315;52.624;13.544;2022-09-01T05:36:36;2.03;;;0.97;;
18376;SDS011;9315;52.624;13.544;2022-09-01T05:39:09;1.57;;;1.13;;
18376;SDS011;9315;52.624;13.544;2022-09-01T05:41:38;3.13;;;1.30;;
18376;SDS011;9315;52.624;13.544;2022-09-01T05:44:06;3.27;;;1.00;;
18376;SDS011;9315;52.624;13.544;2022-09-01T05:46:37;2.90;;;0.90;;
18376;SDS011;9315;52.624;13.544;2022-09-01T05:49:06;2.50;;;1.10;;
18376;SDS011;9315;52.624;13.544;2022-09-01T05:51:40;2.37;;;1.00;;
18376;SDS011;9315;52.624;13.544;2022-09-01T05:54:17;2.07;;;1.00;;
18376;SDS011;9315;52.624;13.544;2022-09-01T05:56:48;6.27;;;1.07;;
18376;SDS011;9315;52.624;13.544;2022-09-01T05:59:42;1.67;;;0.77;;
18376;SDS011;9315;52.624;13.544;2022-09-01T06:02:11;2.10;;;1.00;;
18376;SDS011;9315;52.624;13.544;2022-09-01T06:04:38;1.33;;;0.93;;
18376;SDS011;9315;52.624;13.544;2022-09-01T06:07:06;1.63;;;0.70;;
18376;SDS011;9315;52.624;13.544;2022-09-01T06:09:43;3.80;;;0.93;;
18376;SDS011;9315;52.624;13.544;2022-09-01T06:12:14;4.60;;;0.83;;
18376;SDS011;9315;52.624;13.544;2022-09-01T06:14:44;2.90;;;0.80;;
18376;SDS011;9315;52.624;13.544;2022-09-01T06:17:13;2.63;;;0.90;;
18376;SDS011;9315;52.624;13.544;2022-09-01T06:19:53;2.00;;;0.80;;
18376;SDS011;9315;52.624;13.544;2022-09-01T06:22:22;0.77;;;0.40;;
18376;SDS011;9315;52.624;13.544;2022-09-01T06:24:54;2.93;;;0.60;;
18376;SDS011;9315;52.624;13.544;2022-09-01T06:27:28;4.27;;;0.97;;
18376;SDS011;9315;52.624;13.544;2022-09-01T06:29:55;2.40;;;0.60;;
18376;SDS011;9315;52.624;13.544;2022-09-01T06:32:23;3.03;;;0.73;;
18376;SDS011;9315;52.624;13.544;2022-09-01T06:34:52;2.00;;;0.50;;
18376;SDS011;9315;52.624;13.544;2022-09-01T06:37:23;0.80;;;0.57;;
18376;SDS011;9315;52.624;13.544;2022-09-01T06:40:03;3.43;;;0.80;;
18376;SDS011;9315;52.624;13.544;2022-09-01T06:42:38;3.30;;;0.70;;
18376;SDS011;9315;52.624;13.544;2022-09-01T06:45:07;2.70;;;0.50;;
18376;SDS011;9315;52.624;13.544;2022-09-01T06:47:35;2.17;;;0.80;;
18376;SDS011;9315;52.624;13.544;2022-09-01T06:50:03;2.07;;;0.60;;
18376;SDS011;9315;52.624;13.544;2022-09-01T06:52:34;1.87;;;0.73;;
18376;SDS011;9315;52.624;13.544;2022-09-01T06:55:25;2.30;;;0.77;;
18376;SDS011;9315;52.624;13.544;2022-09-01T06:58:01;2.40;;;1.10;;
18376;SDS011;9315;52.624;13.544;2022-09-01T07:00:37;5.00;;;0.90;;
18376;SDS011;9315;52.624;13.544;2022-09-01T07:03:18;3.03;;;0.73;;
18376;SDS011;9315;52.624;13.544;2022-09-01T07:05:46;2.20;;;0.80;;
18376;SDS011;9315;52.624;13.544;2022-09-01T07:08:27;1.00;;;0.60;;
18376;SDS011;9315;52.624;13.544;2022-09-01T07:10:55;4.20;;;0.63;;
18376;SDS011;9315;52.624;13.544;2022-09-01T07:13:44;6.47;;;0.80;;
18376;SDS011;9315;52.624;13.544;2022-09-01T07:16:34;5.53;;;0.70;;
18376;SDS011;9315;52.624;13.544;2022-09-01T07:19:25;1.67;;;0.57;;
18376;SDS011;9315;52.624;13.544;2022-09-01T07:22:16;2.30;;;1.07;;
18376;SDS011;9315;52.624;13.544;2022-09-01T07:25:03;1.97;;;0.50;;
18376;SDS011;9315;52.624;13.544;2022-09-01T07:27:41;3.57;;;0.70;;
18376;SDS011;9315;52.624;13.544;2022-09-01T07:30:17;3.67;;;0.70;;
18376;SDS011;9315;52.624;13.544;2022-09-01T07:32:50;6.53;;;0.70;;
18376;SDS011;9315;52.624;13.544;2022-09-01T07:35:45;2.20;;;0.40;;
18376;SDS011;9315;52.624;13.544;2022-09-01T07:38:32;2.73;;;0.40;;
18376;SDS011;9315;52.624;13.544;2022-09-01T07:41:20;1.97;;;0.47;;
18376;SDS011;9315;52.624;13.544;2022-09-01T07:44:11;1.80;;;0.60;;
18376;SDS011;9315;52.624;13.544;2022-09-01T07:46:42;2.20;;;0.40;;
18376;SDS011;9315;52.624;13.544;2022-09-01T07:49:33;5.47;;;0.60;;
18376;SDS011;9315;52.624;13.544;2022-09-01T07:52:22;4.60;;;0.60;;
18376;SDS011;9315;52.624;13.544;2022-09-01T07:54:51;1.77;;;0.40;;
18376;SDS011;9315;52.624;13.544;2022-09-01T07:57:19;1.13;;;0.50;;
18376;SDS011;9315;52.624;13.544;2022-09-01T07:59:48;2.23;;;0.67;;
18376;SDS011;9315;52.624;13.544;2022-09-01T08:02:23;2.97;;;0.50;;
18376;SDS011;9315;52.624;13.544;2022-09-01T08:04:53;1.43;;;0.40;;
18376;SDS011;9315;52.624;13.544;2022-09-01T08:07:20;1.27;;;0.40;;
18376;SDS011;9315;52.624;13.544;2022-09-01T08:09:48;2.00;;;0.30;;
18376;SDS011;9315;52.624;13.544;2022-09-01T08:12:26;0.70;;;0.30;;
18376;SDS011;9315;52.624;13.544;2022-09-01T08:14:56;1.17;;;0.33;;
18376;SDS011;9315;52.624;13.544;2022-09-01T08:17:43;2.33;;;0.40;;
18376;SDS011;9315;52.624;13.544;2022-09-01T08:20:18;2.47;;;0.40;;
18376;SDS011;9315;52.624;13.544;2022-09-01T08:22:45;1.70;;;0.40;;
18376;SDS011;9315;52.624;13.544;2022-09-01T08:25:12;3.90;;;0.40;;
18376;SDS011;9315;52.624;13.544;2022-09-01T08:27:41;1.33;;;0.30;;
18376;SDS011;9315;52.624;13.544;2022-09-01T08:30:10;1.50;;;0.40;;
18376;SDS011;9315;52.624;13.544;2022-09-01T08:32:39;0.83;;;0.20;;
18376;SDS011;9315;52.624;13.544;2022-09-01T08:35:10;1.50;;;0.30;;
18376;SDS011;9315;52.624;13.544;2022-09-01T08:37:39;1.73;;;0.30;;
18376;SDS011;9315;52.624;13.544;2022-09-01T08:40:07;5.78;;;0.70;;
18376;SDS011;9315;52.624;13.544;2022-09-01T08:46:00;1.20;;;0.20;;
18376;SDS011;9315;52.624;13.544;2022-09-01T08:48:54;2.20;;;0.40;;
18376;SDS011;9315;52.624;13.544;2022-09-01T08:52:00;0.40;;;0.30;;
18376;SDS011;9315;52.624;13.544;2022-09-01T08:54:59;9.23;;;0.95;;
18376;SDS011;9315;52.624;13.544;2022-09-01T08:57:49;4.10;;;0.50;;
18376;SDS011;9315;52.624;13.544;2022-09-01T09:00:27;2.15;;;0.30;;
18376;SDS011;9315;52.624;13.544;2022-09-01T09:06:16;2.53;;;0.30;;
18376;SDS011;9315;52.624;13.544;2022-09-01T09:08:59;2.40;;;0.30;;
18376;SDS011;9315;52.624;13.544;2022-09-01T09:11:53;1.02;;;0.40;;
18376;SDS011;9315;52.624;13.544;2022-09-01T09:18:03;0.43;;;0.28;;
18376;SDS011;9315;52.624;13.544;2022-09-01T09:21:24;3.75;;;0.30;;
18376;SDS011;9315;52.624;13.544;2022-09-01T09:29:59;3.70;;;0.20;;
18376;SDS011;9315;52.624;13.544;2022-09-01T09:33:00;1.88;;;0.22;;
18376;SDS011;9315;52.624;13.544;2022-09-01T09:35:55;1.70;;;0.30;;
18376;SDS011;9315;52.624;13.544;2022-09-01T09:42:04;1.48;;;0.20;;
18376;SDS011;9315;52.624;13.544;2022-09-01T09:44:43;0.60;;;0.20;;
18376;SDS011;9315;52.624;13.544;2022-09-01T09:47:34;3.30;;;0.22;;
18376;SDS011;9315;52.624;13.544;2022-09-01T09:53:10;0.73;;;0.22;;
18376;SDS011;9315;52.624;13.544;2022-09-01T09:58:35;1.27;;;0.30;;
18376;SDS011;9315;52.624;13.544;2022-09-01T10:03:57;0.77;;;0.32;;
18376;SDS011;9315;52.624;13.544;2022-09-01T10:06:33;0.82;;;0.20;;
18376;SDS011;9315;52.624;13.544;2022-09-01T10:09:08;2.55;;;0.50;;
18376;SDS011;9315;52.624;13.544;2022-09-01T10:12:09;0.35;;;0.20;;
18376;SDS011;9315;52.624;13.544;2022-09-01T10:14:40;0.43;;;0.13;;
18376;SDS011;9315;52.624;13.544;2022-09-01T10:17:40;1.50;;;0.20;;
18376;SDS011;9315;52.624;13.544;2022-09-01T10:21:00;0.40;;;0.30;;
18376;SDS011;9315;52.624;13.544;2022-09-01T10:23:51;0.65;;;0.20;;
18376;SDS011;9315;52.624;13.544;2022-09-01T10:26:23;0.25;;;0.10;;
18376;SDS011;9315;52.624;13.544;2022-09-01T10:29:06;0.50;;;0.30;;
18376;SDS011;9315;52.624;13.544;2022-09-01T10:31:41;1.20;;;0.20;;
18376;SDS011;9315;52.624;13.544;2022-09-01T10:34:12;0.68;;;0.20;;
18376;SDS011;9315;52.624;13.544;2022-09-01T10:36:45;0.57;;;0.20;;
18376;SDS011;9315;52.624;13.544;2022-09-01T10:39:22;0.80;;;0.30;;
18376;SDS011;9315;52.624;13.544;2022-09-01T10:41:56;0.65;;;0.20;;
18376;SDS011;9315;52.624;13.544;2022-09-01T10:44:36;0.22;;;0.10;;
18376;SDS011;9315;52.624;13.544;2022-09-01T10:47:24;0.70;;;0.38;;
18376;SDS011;9315;52.624;13.544;2022-09-01T10:50:00;1.23;;;0.20;;
18376;SDS011;9315;52.624;13.544;2022-09-01T10:57:53;3.13;;;0.30;;
18376;SDS011;9315;52.624;13.544;2022-09-01T11:01:04;2.17;;;0.20;;
18376;SDS011;9315;52.624;13.544;2022-09-01T11:03:53;2.55;;;0.30;;
18376;SDS011;9315;52.624;13.544;2022-09-01T11:06:33;3.53;;;0.30;;
18376;SDS011;9315;52.624;13.544;2022-09-01T11:10:15;1.77;;;0.50;;
18376;SDS011;9315;52.624;13.544;2022-09-01T11:16:41;0.45;;;0.10;;
18376;SDS011;9315;52.624;13.544;2022-09-01T11:19:32;3.00;;;0.20;;
18376;SDS011;9315;52.624;13.544;2022-09-01T11:22:42;2.63;;;0.30;;
18376;SDS011;9315;52.624;13.544;2022-09-01T11:25:42;1.45;;;0.30;;
18376;SDS011;9315;52.624;13.544;2022-09-01T11:28:44;0.93;;;0.22;;
18376;SDS011;9315;52.624;13.544;2022-09-01T11:31:20;1.95;;;0.30;;
18376;SDS011;9315;52.624;13.544;2022-09-01T11:34:18;1.33;;;0.20;;
18376;SDS011;9315;52.624;13.544;2022-09-01T11:36:53;0.50;;;0.15;;
18376;SDS011;9315;52.624;13.544;2022-09-01T11:45:56;0.52;;;0.20;;
18376;SDS011;9315;52.624;13.544;2022-09-01T11:48:56;2.72;;;0.22;;
18376;SDS011;9315;52.624;13.544;2022-09-01T11:52:03;0.50;;;0.20;;
18376;SDS011;9315;52.624;13.544;2022-09-01T11:54:43;2.72;;;0.30;;
18376;SDS011;9315;52.624;13.544;2022-09-01T11:57:30;2.08;;;0.20;;
18376;SDS011;9315;52.624;13.544;2022-09-01T12:00:09;0.77;;;0.25;;
18376;SDS011;9315;52.624;13.544;2022-09-01T12:03:09;1.95;;;0.30;;
18376;SDS011;9315;52.624;13.544;2022-09-01T12:06:05;2.92;;;0.25;;
18376;SDS011;9315;52.624;13.544;2022-09-01T12:09:00;1.85;;;0.40;;
18376;SDS011;9315;52.624;13.544;2022-09-01T12:11:38;0.50;;;0.20;;
18376;SDS011;9315;52.624;13.544;2022-09-01T12:14:10;1.70;;;0.30;;
18376;SDS011;9315;52.624;13.544;2022-09-01T12:17:18;2.30;;;0.22;;
18376;SDS011;9315;52.624;13.544;2022-09-01T12:19:55;2.03;;;0.30;;
18376;SDS011;9315;52.624;13.544;2022-09-01T12:22:42;0.90;;;0.30;;
18376;SDS011;9315;52.624;13.544;2022-09-01T12:25:16;1.55;;;0.28;;
18376;SDS011;9315;52.624;13.544;2022-09-01T12:27:59;0.52;;;0.13;;
18376;SDS011;9315;52.624;13.544;2022-09-01T12:30:36;0.20;;;0.20;;
18376;SDS011;9315;52.624;13.544;2022-09-01T12:33:09;0.45;;;0.25;;
18376;SDS011;9315;52.624;13.544;2022-09-01T12:35:58;1.98;;;0.30;;
18376;SDS011;9315;52.624;13.544;2022-09-01T12:42:08;1.15;;;0.20;;
18376;SDS011;9315;52.624;13.544;2022-09-01T12:45:09;2.00;;;0.20;;
18376;SDS011;9315;52.624;13.544;2022-09-01T12:52:47;1.05;;;0.20;;
18376;SDS011;9315;52.624;13.544;2022-09-01T12:55:34;6.57;;;0.35;;
18376;SDS011;9315;52.624;13.544;2022-09-01T12:58:22;0.98;;;0.20;;
18376;SDS011;9315;52.624;13.544;2022-09-01T13:03:41;0.50;;;0.15;;
18376;SDS011;9315;52.624;13.544;2022-09-01T13:06:45;2.90;;;0.30;;
18376;SDS011;9315;52.624;13.544;2022-09-01T13:09:12;0.50;;;0.20;;
18376;SDS011;9315;52.624;13.544;2022-09-01T13:11:40;2.00;;;0.20;;
18376;SDS011;9315;52.624;13.544;2022-09-01T13:14:27;1.80;;;0.30;;
18376;SDS011;9315;52.624;13.544;2022-09-01T13:16:57;0.85;;;0.20;;
18376;SDS011;9315;52.624;13.544;2022-09-01T13:19:25;1.50;;;0.30;;
18376;SDS011;9315;52.624;13.544;2022-09-01T13:21:55;0.98;;;0.40;;
18376;SDS011;9315;52.624;13.544;2022-09-01T13:24:23;0.50;;;0.20;;
18376;SDS011;9315;52.624;13.544;2022-09-01T13:26:56;0.73;;;0.20;;
18376;SDS011;9315;52.624;13.544;2022-09-01T13:29:43;2.03;;;0.43;;
18376;SDS011;9315;52.624;13.544;2022-09-01T13:32:11;1.50;;;0.28;;
18376;SDS011;9315;52.624;13.544;2022-09-01T13:34:45;0.65;;;0.30;;
18376;SDS011;9315;52.624;13.544;2022-09-01T13:37:16;0.52;;;0.20;;
18376;SDS011;9315;52.624;13.544;2022-09-01T13:39:45;1.85;;;0.20;;
18376;SDS011;9315;52.624;13.544;2022-09-01T13:42:13;0.45;;;0.20;;
18376;SDS011;9315;52.624;13.544;2022-09-01T13:44:42;0.30;;;0.20;;
18376;SDS011;9315;52.624;13.544;2022-09-01T13:47:10;0.85;;;0.22;;
18376;SDS011;9315;52.624;13.544;2022-09-01T13:49:54;2.00;;;0.10;;
18376;SDS011;9315;52.624;13.544;2022-09-01T13:52:40;2.40;;;0.20;;
18376;SDS011;9315;52.624;13.544;2022-09-01T13:55:21;0.45;;;0.20;;
18376;SDS011;9315;52.624;13.544;2022-09-01T13:57:53;0.68;;;0.25;;
18376;SDS011;9315;52.624;13.544;2022-09-01T14:00:23;0.82;;;0.30;;
18376;SDS011;9315;52.624;13.544;2022-09-01T14:02:55;2.47;;;0.30;;
18376;SDS011;9315;52.624;13.544;2022-09-01T14:05:29;4.95;;;0.30;;
18376;SDS011;9315;52.624;13.544;2022-09-01T14:08:03;0.35;;;0.25;;
18376;SDS011;9315;52.624;13.544;2022-09-01T14:10:36;1.05;;;0.32;;
18376;SDS011;9315;52.624;13.544;2022-09-01T14:13:10;0.55;;;0.20;;
18376;SDS011;9315;52.624;13.544;2022-09-01T14:15:38;0.47;;;0.30;;
18376;SDS011;9315;52.624;13.544;2022-09-01T14:18:16;0.50;;;0.20;;
18376;SDS011;9315;52.624;13.544;2022-09-01T14:20:46;1.83;;;0.20;;
18376;SDS011;9315;52.624;13.544;2022-09-01T14:23:17;0.70;;;0.25;;
18376;SDS011;9315;52.624;13.544;2022-09-01T14:25:52;2.72;;;0.30;;
18376;SDS011;9315;52.624;13.544;2022-09-01T14:28:23;0.47;;;0.20;;
18376;SDS011;9315;52.624;13.544;2022-09-01T14:30:51;0.20;;;0.20;;
18376;SDS011;9315;52.624;13.544;2022-09-01T14:33:18;0.57;;;0.20;;
18376;SDS011;9315;52.624;13.544;2022-09-01T14:35:53;0.57;;;0.30;;
18376;SDS011;9315;52.624;13.544;2022-09-01T14:38:20;1.80;;;0.20;;
18376;SDS011;9315;52.624;13.544;2022-09-01T14:40:51;3.13;;;0.20;;
18376;SDS011;9315;52.624;13.544;2022-09-01T14:43:18;0.75;;;0.20;;
18376;SDS011;9315;52.624;13.544;2022-09-01T14:45:48;0.88;;;0.20;;
18376;SDS011;9315;52.624;13.544;2022-09-01T14:48:17;1.48;;;0.20;;
18376;SDS011;9315;52.624;13.544;2022-09-01T14:50:46;0.40;;;0.20;;
18376;SDS011;9315;52.624;13.544;2022-09-01T14:53:15;0.40;;;0.20;;
18376;SDS011;9315;52.624;13.544;2022-09-01T14:55:42;2.92;;;0.30;;
18376;SDS011;9315;52.624;13.544;2022-09-01T14:58:09;0.63;;;0.32;;
18376;SDS011;9315;52.624;13.544;2022-09-01T15:00:36;0.50;;;0.30;;
18376;SDS011;9315;52.624;13.544;2022-09-01T15:03:07;3.55;;;0.50;;
18376;SDS011;9315;52.624;13.544;2022-09-01T15:05:36;0.88;;;0.45;;
18376;SDS011;9315;52.624;13.544;2022-09-01T15:08:06;2.00;;;0.20;;
18376;SDS011;9315;52.624;13.544;2022-09-01T15:10:39;0.40;;;0.20;;
18376;SDS011;9315;52.624;13.544;2022-09-01T15:13:07;1.48;;;0.20;;
18376;SDS011;9315;52.624;13.544;2022-09-01T15:15:34;0.98;;;0.30;;
18376;SDS011;9315;52.624;13.544;2022-09-01T15:18:01;0.75;;;0.30;;
18376;SDS011;9315;52.624;13.544;2022-09-01T15:20:29;1.33;;;0.20;;
18376;SDS011;9315;52.624;13.544;2022-09-01T15:23:15;1.20;;;0.20;;
18376;SDS011;9315;52.624;13.544;2022-09-01T15:25:52;0.40;;;0.20;;
18376;SDS011;9315;52.624;13.544;2022-09-01T15:28:21;1.05;;;0.20;;
18376;SDS011;9315;52.624;13.544;2022-09-01T15:30:48;0.63;;;0.20;;
18376;SDS011;9315;52.624;13.544;2022-09-01T15:33:19;0.20;;;0.20;;
18376;SDS011;9315;52.624;13.544;2022-09-01T15:35:46;0.95;;;0.25;;
18376;SDS011;9315;52.624;13.544;2022-09-01T15:38:14;1.85;;;0.20;;
18376;SDS011;9315;52.624;13.544;2022-09-01T15:40:53;0.57;;;0.30;;
18376;SDS011;9315;52.624;13.544;2022-09-01T15:43:24;3.30;;;0.50;;
18376;SDS011;9315;52.624;13.544;2022-09-01T15:45:53;1.02;;;0.25;;
18376;SDS011;9315;52.624;13.544;2022-09-01T15:48:24;0.38;;;0.20;;
18376;SDS011;9315;52.624;13.544;2022-09-01T15:50:57;0.17;;;0.17;;
18376;SDS011;9315;52.624;13.544;2022-09-01T15:53:48;0.95;;;0.38;;
18376;SDS011;9315;52.624;13.544;2022-09-01T15:56:22;0.68;;;0.20;;
18376;SDS011;9315;52.624;13.544;2022-09-01T15:58:49;3.47;;;0.30;;
18376;SDS011;9315;52.624;13.544;2022-09-01T16:01:27;2.13;;;0.30;;
18376;SDS011;9315;52.624;13.544;2022-09-01T16:04:02;1.45;;;0.17;;
18376;SDS011;9315;52.624;13.544;2022-09-01T16:06:32;0.75;;;0.17;;
18376;SDS011;9315;52.624;13.544;2022-09-01T16:09:00;0.30;;;0.10;;
18376;SDS011;9315;52.624;13.544;2022-09-01T16:11:28;1.60;;;0.17;;
18376;SDS011;9315;52.624;13.544;2022-09-01T16:13:58;0.82;;;0.30;;
18376;SDS011;9315;52.624;13.544;2022-09-01T16:20:20;2.30;;;0.30;;
18376;SDS011;9315;52.624;13.544;2022-09-01T16:23:21;3.50;;;0.22;;
18376;SDS011;9315;52.624;13.544;2022-09-01T16:26:11;2.90;;;0.30;;
18376;SDS011;9315;52.624;13.544;2022-09-01T16:28:38;0.70;;;0.70;;
18376;SDS011;9315;52.624;13.544;2022-09-01T16:31:33;1.20;;;0.30;;
18376;SDS011;9315;52.624;13.544;2022-09-01T16:34:02;0.20;;;0.20;;
18376;SDS011;9315;52.624;13.544;2022-09-01T16:40:02;0.38;;;0.30;;
18376;SDS011;9315;52.624;13.544;2022-09-01T16:52:07;0.32;;;0.28;;